sensor_id;sensor_type;location;lat;lon;timestamp;pressure;altitude;pressure_sealevel;temperature;humidity
18821;BME280;9539;59.332;18.034;2022-11-14T00:00:11;102650.41;;;6.16;100.00
18821;BME280;9539;59.332;18.034;2022-11-14T00:02:39;102645.91;;;6.22;100.00
18821;BME280;9539;59.332;18.034;2022-11-14T00:05:07;102632.72;;;6.22;100.00
18821;BME280;9539;59.332;18.034;2022-11-14T00:07:34;102639.66;;;6.29;100.00
18821;BME280;9539;59.332;18.034;2022-11-14T00:10:03;102629.06;;;6.34;100.00
18821;BME280;9539;59.332;18.034;2022-11-14T00:12:30;102625.56;;;6.35;100.00
18821;BME280;9539;59.332;18.034;2022-11-14T00:14:56;102618.34;;;6.48;100.00
18821;BME280;9539;59.332;18.034;2022-11-14T00:17:23;102612.16;;;6.49;100.00
18821;BME280;9539;59.332;18.034;2022-11-14T00:19:50;102621.69;;;6.59;100.00
18821;BME280;9539;59.332;18.034;2022-11-14T00:22:17;102616.25;;;6.68;100.00
18821;BME280;9539;59.332;18.034;2022-11-14T00:24:44;102604.69;;;6.79;100.00
18821;BME280;9539;59.332;18.034;2022-11-14T00:27:12;102604.72;;;6.75;100.00
18821;BME280;9539;59.332;18.034;2022-11-14T00:29:38;102602.63;;;6.97;100.00
18821;BME280;9539;59.332;18.034;2022-11-14T00:32:05;102603.41;;;7.03;100.00
18821;BME280;9539;59.332;18.034;2022-11-14T00:34:33;102599.00;;;7.02;100.00
18821;BME280;9539;59.332;18.034;2022-11-14T00:36:59;102583.94;;;7.09;100.00
18821;BME280;9539;59.332;18.034;2022-11-14T00:39:26;102584.78;;;7.12;100.00
18821;BME280;9539;59.332;18.034;2022-11-14T00:41:53;102582.06;;;7.17;100.00
18821;BME280;9539;59.332;18.034;2022-11-14T00:44:21;102569.63;;;7.22;100.00
18821;BME280;9539;59.332;18.034;2022-11-14T00:46:48;102573.09;;;7.26;100.00
18821;BME280;9539;59.332;18.034;2022-11-14T00:49:15;102560.78;;;7.25;100.00
18821;BME280;9539;59.332;18.034;2022-11-14T00:51:41;102566.31;;;7.12;100.00
18821;BME280;9539;59.332;18.034;2022-11-14T00:54:08;102565.38;;;7.13;100.00
18821;BME280;9539;59.332;18.034;2022-11-14T00:56:35;102562.72;;;7.13;100.00
18821;BME280;9539;59.332;18.034;2022-11-14T00:59:03;102560.09;;;7.13;100.00
18821;BME280;9539;59.332;18.034;2022-11-14T01:01:31;102569.53;;;7.27;100.00
18821;BME280;9539;59.332;18.034;2022-11-14T01:03:58;102559.72;;;7.35;100.00
18821;BME280;9539;59.332;18.034;2022-11-14T01:06:25;102558.72;;;7.40;100.00
18821;BME280;9539;59.332;18.034;2022-11-14T01:08:52;102558.94;;;7.30;100.00
18821;BME280;9539;59.332;18.034;2022-11-14T01:11:20;102564.00;;;7.40;100.00
18821;BME280;9539;59.332;18.034;2022-11-14T01:13:47;102560.44;;;7.43;100.00
18821;BME280;9539;59.332;18.034;2022-11-14T01:16:14;102547.38;;;7.37;100.00
18821;BME280;9539;59.332;18.034;2022-11-14T01:18:42;102553.22;;;7.52;100.00
18821;BME280;9539;59.332;18.034;2022-11-14T01:21:12;102548.84;;;7.51;100.00
18821;BME280;9539;59.332;18.034;2022-11-14T01:23:39;102545.28;;;7.52;100.00
18821;BME280;9539;59.332;18.034;2022-11-14T01:26:08;102553.25;;;7.51;100.00
18821;BME280;9539;59.332;18.034;2022-11-14T01:28:36;102548.03;;;7.48;100.00
18821;BME280;9539;59.332;18.034;2022-11-14T01:31:14;102548.13;;;7.43;100.00
18821;BME280;9539;59.332;18.034;2022-11-14T01:33:42;102538.31;;;7.50;100.00
18821;BME280;9539;59.332;18.034;2022-11-14T01:36:09;102531.25;;;7.50;100.00
18821;BME280;9539;59.332;18.034;2022-11-14T01:38:36;102533.03;;;7.50;100.00
18821;BME280;9539;59.332;18.034;2022-11-14T01:41:04;102524.28;;;7.46;100.00
18821;BME280;9539;59.332;18.034;2022-11-14T01:43:32;102520.81;;;7.44;100.00
18821;BME280;9539;59.332;18.034;2022-11-14T01:46:02;102519.03;;;7.45;100.00
18821;BME280;9539;59.332;18.034;2022-11-14T01:48:34;102513.81;;;7.42;100.00
18821;BME280;9539;59.332;18.034;2022-11-14T01:51:17;102511.06;;;7.46;100.00
18821;BME280;9539;59.332;18.034;2022-11-14T01:53:47;102503.94;;;7.51;100.00
18821;BME280;9539;59.332;18.034;2022-11-14T01:56:16;102502.09;;;7.55;100.00
18821;BME280;9539;59.332;18.034;2022-11-14T01:58:49;102499.47;;;7.53;100.00
18821;BME280;9539;59.332;18.034;2022-11-14T02:01:17;102495.19;;;7.48;100.00
18821;BME280;9539;59.332;18.034;2022-11-14T02:03:45;102490.69;;;7.53;100.00
18821;BME280;9539;59.332;18.034;2022-11-14T02:06:19;102477.28;;;7.63;100.00
18821;BME280;9539;59.332;18.034;2022-11-14T02:08:47;102486.13;;;7.61;100.00
18821;BME280;9539;59.332;18.034;2022-11-14T02:11:14;102482.63;;;7.59;100.00
18821;BME280;9539;59.332;18.034;2022-11-14T02:13:41;102475.50;;;7.64;100.00
18821;BME280;9539;59.332;18.034;2022-11-14T02:16:08;102475.63;;;7.58;100.00
18821;BME280;9539;59.332;18.034;2022-11-14T02:18:35;102475.38;;;7.70;100.00
18821;BME280;9539;59.332;18.034;2022-11-14T02:21:03;102463.19;;;7.63;100.00
18821;BME280;9539;59.332;18.034;2022-11-14T02:23:31;102454.28;;;7.67;100.00
18821;BME280;9539;59.332;18.034;2022-11-14T02:25:58;102452.59;;;7.65;100.00
18821;BME280;9539;59.332;18.034;2022-11-14T02:28:26;102448.22;;;7.62;100.00
18821;BME280;9539;59.332;18.034;2022-11-14T02:30:53;102443.00;;;7.59;100.00
18821;BME280;9539;59.332;18.034;2022-11-14T02:33:20;102442.03;;;7.65;100.00
18821;BME280;9539;59.332;18.034;2022-11-14T02:35:46;102449.09;;;7.62;100.00
18821;BME280;9539;59.332;18.034;2022-11-14T02:38:15;102450.91;;;7.59;100.00
18821;BME280;9539;59.332;18.034;2022-11-14T02:40:41;102443.66;;;7.70;100.00
18821;BME280;9539;59.332;18.034;2022-11-14T02:43:08;102438.25;;;7.75;100.00
18821;BME280;9539;59.332;18.034;2022-11-14T02:45:35;102437.38;;;7.74;100.00
18821;BME280;9539;59.332;18.034;2022-11-14T02:48:02;102427.44;;;7.85;100.00
18821;BME280;9539;59.332;18.034;2022-11-14T02:50:29;102424.78;;;7.85;100.00
18821;BME280;9539;59.332;18.034;2022-11-14T02:52:56;102424.84;;;7.84;100.00
18821;BME280;9539;59.332;18.034;2022-11-14T02:55:24;102421.97;;;7.93;100.00
18821;BME280;9539;59.332;18.034;2022-11-14T02:57:51;102418.41;;;7.95;100.00
18821;BME280;9539;59.332;18.034;2022-11-14T03:00:18;102424.44;;;8.00;100.00
18821;BME280;9539;59.332;18.034;2022-11-14T03:02:45;102422.72;;;7.99;100.00
18821;BME280;9539;59.332;18.034;2022-11-14T03:05:11;102423.47;;;8.04;100.00
18821;BME280;9539;59.332;18.034;2022-11-14T03:07:38;102421.53;;;8.11;100.00
18821;BME280;9539;59.332;18.034;2022-11-14T03:10:06;102419.72;;;8.15;100.00
18821;BME280;9539;59.332;18.034;2022-11-14T03:12:35;102420.41;;;8.23;100.00
18821;BME280;9539;59.332;18.034;2022-11-14T03:15:03;102410.56;;;8.28;100.00
18821;BME280;9539;59.332;18.034;2022-11-14T03:17:31;102406.78;;;8.39;100.00
18821;BME280;9539;59.332;18.034;2022-11-14T03:19:58;102413.88;;;8.37;100.00
18821;BME280;9539;59.332;18.034;2022-11-14T03:22:25;102410.34;;;8.38;100.00
18821;BME280;9539;59.332;18.034;2022-11-14T03:24:52;102406.81;;;8.38;100.00
18821;BME280;9539;59.332;18.034;2022-11-14T03:27:19;102402.19;;;8.48;100.00
18821;BME280;9539;59.332;18.034;2022-11-14T03:29:47;102399.59;;;8.45;100.00
18821;BME280;9539;59.332;18.034;2022-11-14T03:32:15;102399.63;;;8.43;100.00
18821;BME280;9539;59.332;18.034;2022-11-14T03:34:41;102404.81;;;8.48;100.00
18821;BME280;9539;59.332;18.034;2022-11-14T03:37:09;102393.59;;;8.38;100.00
18821;BME280;9539;59.332;18.034;2022-11-14T03:39:35;102393.53;;;8.41;100.00
18821;BME280;9539;59.332;18.034;2022-11-14T03:42:02;102400.44;;;8.47;100.00
18821;BME280;9539;59.332;18.034;2022-11-14T03:44:29;102403.94;;;8.47;100.00
18821;BME280;9539;59.332;18.034;2022-11-14T03:46:57;102403.06;;;8.47;100.00
18821;BME280;9539;59.332;18.034;2022-11-14T03:49:24;102392.63;;;8.42;100.00
18821;BME280;9539;59.332;18.034;2022-11-14T03:51:51;102386.16;;;8.52;100.00
18821;BME280;9539;59.332;18.034;2022-11-14T03:54:17;102392.81;;;8.68;100.00
18821;BME280;9539;59.332;18.034;2022-11-14T03:56:44;102379.94;;;8.55;100.00
18821;BME280;9539;59.332;18.034;2022-11-14T03:59:11;102383.22;;;8.63;100.00
18821;BME280;9539;59.332;18.034;2022-11-14T04:01:37;102385.13;;;8.58;100.00
18821;BME280;9539;59.332;18.034;2022-11-14T04:04:06;102384.88;;;8.68;100.00
18821;BME280;9539;59.332;18.034;2022-11-14T04:06:32;102384.88;;;8.68;100.00
18821;BME280;9539;59.332;18.034;2022-11-14T04:08:59;102379.97;;;8.53;100.00
18821;BME280;9539;59.332;18.034;2022-11-14T04:11:26;102382.25;;;8.67;100.00
18821;BME280;9539;59.332;18.034;2022-11-14T04:13:53;102385.63;;;8.73;100.00
18821;BME280;9539;59.332;18.034;2022-11-14T04:16:19;102380.38;;;8.70;100.00
18821;BME280;9539;59.332;18.034;2022-11-14T04:18:46;102380.53;;;8.66;100.00
18821;BME280;9539;59.332;18.034;2022-11-14T04:21:14;102384.53;;;8.80;100.00
18821;BME280;9539;59.332;18.034;2022-11-14T04:23:41;102380.75;;;8.89;100.00
18821;BME280;9539;59.332;18.034;2022-11-14T04:26:08;102386.66;;;8.99;100.00
18821;BME280;9539;59.332;18.034;2022-11-14T04:28:35;102383.28;;;8.94;100.00
18821;BME280;9539;59.332;18.034;2022-11-14T04:31:01;102380.81;;;8.88;100.00
18821;BME280;9539;59.332;18.034;2022-11-14T04:33:28;102381.63;;;8.90;100.00
18821;BME280;9539;59.332;18.034;2022-11-14T04:35:55;102376.25;;;8.93;100.00
18821;BME280;9539;59.332;18.034;2022-11-14T04:38:23;102380.56;;;8.95;100.00
18821;BME280;9539;59.332;18.034;2022-11-14T04:40:50;102375.44;;;8.89;100.00
18821;BME280;9539;59.332;18.034;2022-11-14T04:43:17;102380.56;;;8.95;100.00
18821;BME280;9539;59.332;18.034;2022-11-14T04:45:45;102381.28;;;9.02;100.00
18821;BME280;9539;59.332;18.034;2022-11-14T04:48:12;102378.44;;;9.08;100.00
18821;BME280;9539;59.332;18.034;2022-11-14T04:50:39;102376.38;;;9.19;100.00
18821;BME280;9539;59.332;18.034;2022-11-14T04:53:06;102370.97;;;9.22;100.00
18821;BME280;9539;59.332;18.034;2022-11-14T04:55:34;102376.06;;;9.30;100.00
18821;BME280;9539;59.332;18.034;2022-11-14T04:58:01;102365.63;;;9.23;100.00
18821;BME280;9539;59.332;18.034;2022-11-14T05:00:28;102370.94;;;9.23;100.00
18821;BME280;9539;59.332;18.034;2022-11-14T05:02:57;102363.94;;;9.21;100.00
18821;BME280;9539;59.332;18.034;2022-11-14T05:05:24;102364.88;;;9.20;100.00
18821;BME280;9539;59.332;18.034;2022-11-14T05:07:51;102357.91;;;9.16;100.00
18821;BME280;9539;59.332;18.034;2022-11-14T05:10:17;102366.69;;;9.18;100.00
18821;BME280;9539;59.332;18.034;2022-11-14T05:12:45;102355.44;;;9.10;100.00
18821;BME280;9539;59.332;18.034;2022-11-14T05:15:12;102358.97;;;9.10;100.00
18821;BME280;9539;59.332;18.034;2022-11-14T05:17:39;102355.44;;;9.10;100.00
18821;BME280;9539;59.332;18.034;2022-11-14T05:20:07;102367.06;;;9.06;100.00
18821;BME280;9539;59.332;18.034;2022-11-14T05:22:33;102364.81;;;8.91;100.00
18821;BME280;9539;59.332;18.034;2022-11-14T05:25:00;102369.94;;;8.97;100.00
18821;BME280;9539;59.332;18.034;2022-11-14T05:27:27;102360.09;;;9.02;100.00
18821;BME280;9539;59.332;18.034;2022-11-14T05:29:56;102362.81;;;9.00;100.00
18821;BME280;9539;59.332;18.034;2022-11-14T05:32:22;102366.59;;;8.90;100.00
18821;BME280;9539;59.332;18.034;2022-11-14T05:34:49;102371.03;;;8.90;100.00
18821;BME280;9539;59.332;18.034;2022-11-14T05:37:16;102377.72;;;9.03;100.00
18821;BME280;9539;59.332;18.034;2022-11-14T05:39:43;102381.97;;;9.08;100.00
18821;BME280;9539;59.332;18.034;2022-11-14T05:42:09;102367.75;;;9.12;100.00
18821;BME280;9539;59.332;18.034;2022-11-14T05:44:36;102365.84;;;9.16;100.00
18821;BME280;9539;59.332;18.034;2022-11-14T05:47:04;102371.31;;;9.11;100.00
18821;BME280;9539;59.332;18.034;2022-11-14T05:49:31;102366.19;;;8.74;100.00
18821;BME280;9539;59.332;18.034;2022-11-14T05:51:58;102366.59;;;8.90;100.00
18821;BME280;9539;59.332;18.034;2022-11-14T05:54:25;102364.56;;;9.00;100.00
18821;BME280;9539;59.332;18.034;2022-11-14T05:56:52;102372.59;;;8.97;100.00
18821;BME280;9539;59.332;18.034;2022-11-14T05:59:18;102369.59;;;9.09;100.00
18821;BME280;9539;59.332;18.034;2022-11-14T06:01:45;102365.56;;;8.96;100.00
18821;BME280;9539;59.332;18.034;2022-11-14T06:04:13;102359.22;;;9.01;100.00
18821;BME280;9539;59.332;18.034;2022-11-14T06:06:40;102365.91;;;8.83;100.00
18821;BME280;9539;59.332;18.034;2022-11-14T06:09:07;102364.78;;;8.61;100.00
18821;BME280;9539;59.332;18.034;2022-11-14T06:11:34;102361.81;;;8.72;100.00
18821;BME280;9539;59.332;18.034;2022-11-14T06:14:00;102365.78;;;8.56;100.00
18821;BME280;9539;59.332;18.034;2022-11-14T06:16:27;102359.59;;;8.57;100.00
18821;BME280;9539;59.332;18.034;2022-11-14T06:18:55;102365.94;;;8.50;100.00
18821;BME280;9539;59.332;18.034;2022-11-14T06:21:24;102363.03;;;8.60;100.00
18821;BME280;9539;59.332;18.034;2022-11-14T06:23:51;102363.91;;;8.61;100.00
18821;BME280;9539;59.332;18.034;2022-11-14T06:26:21;102367.88;;;8.75;100.00
18821;BME280;9539;59.332;18.034;2022-11-14T06:28:48;102360.72;;;8.80;100.00
18821;BME280;9539;59.332;18.034;2022-11-14T06:31:15;102354.06;;;8.66;100.00
18821;BME280;9539;59.332;18.034;2022-11-14T06:33:42;102349.69;;;8.63;100.00
18821;BME280;9539;59.332;18.034;2022-11-14T06:36:10;102329.50;;;8.61;100.00
18821;BME280;9539;59.332;18.034;2022-11-14T06:38:40;102340.03;;;8.62;100.00
18821;BME280;9539;59.332;18.034;2022-11-14T06:41:09;102336.97;;;8.77;100.00
18821;BME280;9539;59.332;18.034;2022-11-14T06:43:37;102335.94;;;8.81;100.00
18821;BME280;9539;59.332;18.034;2022-11-14T06:46:05;102342.50;;;9.01;100.00
18821;BME280;9539;59.332;18.034;2022-11-14T06:48:34;102338.88;;;9.03;100.00
18821;BME280;9539;59.332;18.034;2022-11-14T06:51:04;102337.00;;;9.07;100.00
18821;BME280;9539;59.332;18.034;2022-11-14T06:53:33;102334.22;;;9.11;100.00
18821;BME280;9539;59.332;18.034;2022-11-14T06:56:03;102328.94;;;9.11;100.00
18821;BME280;9539;59.332;18.034;2022-11-14T06:58:32;102320.72;;;8.90;100.00
18821;BME280;9539;59.332;18.034;2022-11-14T07:01:02;102326.16;;;8.85;100.00
18821;BME280;9539;59.332;18.034;2022-11-14T07:03:30;102320.72;;;8.90;100.00
18821;BME280;9539;59.332;18.034;2022-11-14T07:05:57;102318.66;;;9.01;100.00
18821;BME280;9539;59.332;18.034;2022-11-14T07:08:24;102318.56;;;9.04;100.00
18821;BME280;9539;59.332;18.034;2022-11-14T07:10:50;102309.88;;;8.99;100.00
18821;BME280;9539;59.332;18.034;2022-11-14T07:13:19;102314.16;;;9.03;100.00
18821;BME280;9539;59.332;18.034;2022-11-14T07:15:49;102318.19;;;8.87;100.00
18821;BME280;9539;59.332;18.034;2022-11-14T07:18:16;102315.34;;;8.93;100.00
18821;BME280;9539;59.332;18.034;2022-11-14T07:20:43;102317.91;;;8.96;100.00
18821;BME280;9539;59.332;18.034;2022-11-14T07:23:10;102315.19;;;8.99;100.00
18821;BME280;9539;59.332;18.034;2022-11-14T07:25:37;102318.00;;;8.93;100.00
18821;BME280;9539;59.332;18.034;2022-11-14T07:28:03;102320.00;;;8.85;100.00
18821;BME280;9539;59.332;18.034;2022-11-14T07:30:32;102310.97;;;8.92;100.00
18821;BME280;9539;59.332;18.034;2022-11-14T07:32:59;102305.56;;;8.95;100.00
18821;BME280;9539;59.332;18.034;2022-11-14T07:35:26;102312.50;;;9.00;100.00
18821;BME280;9539;59.332;18.034;2022-11-14T07:37:52;102315.72;;;9.10;100.00
18821;BME280;9539;59.332;18.034;2022-11-14T07:40:26;102315.94;;;9.02;100.00
18821;BME280;9539;59.332;18.034;2022-11-14T07:42:56;102316.75;;;9.06;100.00
18821;BME280;9539;59.332;18.034;2022-11-14T07:45:23;102313.22;;;9.05;100.00
18821;BME280;9539;59.332;18.034;2022-11-14T07:47:54;102295.84;;;8.95;100.00
18821;BME280;9539;59.332;18.034;2022-11-14T07:50:21;102293.78;;;9.06;100.00
18821;BME280;9539;59.332;18.034;2022-11-14T07:52:49;102300.28;;;9.24;100.00
18821;BME280;9539;59.332;18.034;2022-11-14T07:55:16;102301.72;;;9.06;100.00
18821;BME280;9539;59.332;18.034;2022-11-14T07:57:43;102297.59;;;9.26;100.00
18821;BME280;9539;59.332;18.034;2022-11-14T08:00:11;102289.69;;;9.24;100.00
18821;BME280;9539;59.332;18.034;2022-11-14T08:02:39;102292.16;;;9.30;100.00
18821;BME280;9539;59.332;18.034;2022-11-14T08:05:07;102291.47;;;9.23;100.00
18821;BME280;9539;59.332;18.034;2022-11-14T08:07:34;102287.59;;;9.06;100.00
18821;BME280;9539;59.332;18.034;2022-11-14T08:10:01;102298.28;;;9.03;100.00
18821;BME280;9539;59.332;18.034;2022-11-14T08:12:28;102287.69;;;9.03;100.00
18821;BME280;9539;59.332;18.034;2022-11-14T08:14:55;102296.34;;;9.08;100.00
18821;BME280;9539;59.332;18.034;2022-11-14T08:17:22;102289.66;;;8.96;100.00
18821;BME280;9539;59.332;18.034;2022-11-14T08:19:49;102294.72;;;9.04;100.00
18821;BME280;9539;59.332;18.034;2022-11-14T08:22:17;102289.97;;;9.15;100.00
18821;BME280;9539;59.332;18.034;2022-11-14T08:24:44;102291.25;;;9.02;100.00
18821;BME280;9539;59.332;18.034;2022-11-14T08:27:11;102291.69;;;9.16;100.00
18821;BME280;9539;59.332;18.034;2022-11-14T08:29:38;102280.13;;;9.20;100.00
18821;BME280;9539;59.332;18.034;2022-11-14T08:32:04;102269.84;;;9.09;100.00
18821;BME280;9539;59.332;18.034;2022-11-14T08:34:31;102279.94;;;9.26;100.00
18821;BME280;9539;59.332;18.034;2022-11-14T08:37:00;102280.53;;;9.06;100.00
18821;BME280;9539;59.332;18.034;2022-11-14T08:39:28;102269.66;;;9.15;100.00
18821;BME280;9539;59.332;18.034;2022-11-14T08:41:55;102274.63;;;9.26;100.00
18821;BME280;9539;59.332;18.034;2022-11-14T08:44:22;102262.16;;;9.30;100.00
18821;BME280;9539;59.332;18.034;2022-11-14T08:46:48;102270.13;;;9.28;100.00
18821;BME280;9539;59.332;18.034;2022-11-14T08:49:15;102274.13;;;9.41;100.00
18821;BME280;9539;59.332;18.034;2022-11-14T08:51:42;102269.75;;;9.40;100.00
18821;BME280;9539;59.332;18.034;2022-11-14T08:54:09;102268.44;;;9.53;100.00
18821;BME280;9539;59.332;18.034;2022-11-14T08:56:37;102263.66;;;9.38;100.00
18821;BME280;9539;59.332;18.034;2022-11-14T08:59:04;102269.81;;;9.39;100.00
18821;BME280;9539;59.332;18.034;2022-11-14T09:01:31;102266.97;;;9.17;100.00
18821;BME280;9539;59.332;18.034;2022-11-14T09:03:59;102264.34;;;9.15;100.00
18821;BME280;9539;59.332;18.034;2022-11-14T09:06:26;102266.50;;;9.32;100.00
18821;BME280;9539;59.332;18.034;2022-11-14T09:08:53;102271.09;;;9.53;100.00
18821;BME280;9539;59.332;18.034;2022-11-14T09:11:19;102261.47;;;9.51;100.00
18821;BME280;9539;59.332;18.034;2022-11-14T09:13:48;102263.28;;;9.49;100.00
18821;BME280;9539;59.332;18.034;2022-11-14T09:16:14;102251.34;;;9.36;100.00
18821;BME280;9539;59.332;18.034;2022-11-14T09:18:41;102250.75;;;9.54;100.00
18821;BME280;9539;59.332;18.034;2022-11-14T09:21:09;102242.69;;;9.58;100.00
18821;BME280;9539;59.332;18.034;2022-11-14T09:23:36;102247.31;;;9.78;100.00
18821;BME280;9539;59.332;18.034;2022-11-14T09:26:03;102243.81;;;9.78;100.00
18821;BME280;9539;59.332;18.034;2022-11-14T09:28:30;102246.44;;;9.78;100.00
18821;BME280;9539;59.332;18.034;2022-11-14T09:31:00;102240.41;;;9.73;100.00
18821;BME280;9539;59.332;18.034;2022-11-14T09:33:27;102227.34;;;9.93;100.00
18821;BME280;9539;59.332;18.034;2022-11-14T09:35:56;102221.34;;;9.88;100.00
18821;BME280;9539;59.332;18.034;2022-11-14T09:38:22;102221.31;;;9.89;100.00
18821;BME280;9539;59.332;18.034;2022-11-14T09:40:59;102233.03;;;9.82;100.00
18821;BME280;9539;59.332;18.034;2022-11-14T09:43:44;102216.03;;;9.88;100.00
18821;BME280;9539;59.332;18.034;2022-11-14T09:46:19;102221.78;;;10.00;100.00
18821;BME280;9539;59.332;18.034;2022-11-14T09:48:47;102218.00;;;9.83;100.00
18821;BME280;9539;59.332;18.034;2022-11-14T09:51:16;102222.03;;;9.93;100.00
18821;BME280;9539;59.332;18.034;2022-11-14T09:53:49;102214.97;;;9.93;100.00
18821;BME280;9539;59.332;18.034;2022-11-14T09:56:20;102210.56;;;9.92;100.00
18821;BME280;9539;59.332;18.034;2022-11-14T09:58:48;102208.31;;;9.82;100.00
18821;BME280;9539;59.332;18.034;2022-11-14T10:01:23;102213.69;;;9.79;100.00
18821;BME280;9539;59.332;18.034;2022-11-14T10:04:01;102206.34;;;9.87;100.00
18821;BME280;9539;59.332;18.034;2022-11-14T10:06:32;102210.25;;;9.77;100.00
18821;BME280;9539;59.332;18.034;2022-11-14T10:09:25;102208.97;;;9.88;100.00
18821;BME280;9539;59.332;18.034;2022-11-14T10:12:01;102205.00;;;9.75;100.00
18821;BME280;9539;59.332;18.034;2022-11-14T10:15:02;102207.03;;;9.67;100.00
18821;BME280;9539;59.332;18.034;2022-11-14T10:17:50;102198.81;;;9.75;100.00
18821;BME280;9539;59.332;18.034;2022-11-14T10:20:27;102193.34;;;9.79;100.00
18821;BME280;9539;59.332;18.034;2022-11-14T10:23:22;102213.31;;;9.65;100.00
18821;BME280;9539;59.332;18.034;2022-11-14T10:26:07;102200.34;;;9.29;100.00
18821;BME280;9539;59.332;18.034;2022-11-14T10:28:45;102205.72;;;9.54;100.00
18821;BME280;9539;59.332;18.034;2022-11-14T10:31:19;102178.97;;;9.35;100.00
18821;BME280;9539;59.332;18.034;2022-11-14T10:33:56;102188.44;;;9.42;100.00
18821;BME280;9539;59.332;18.034;2022-11-14T10:36:37;102187.78;;;9.36;100.00
18821;BME280;9539;59.332;18.034;2022-11-14T10:39:13;102182.44;;;9.37;100.00
18821;BME280;9539;59.332;18.034;2022-11-14T10:41:42;102171.25;;;9.28;100.00
18821;BME280;9539;59.332;18.034;2022-11-14T10:44:12;102175.63;;;9.29;100.00
18821;BME280;9539;59.332;18.034;2022-11-14T10:46:44;102154.78;;;9.19;100.00
18821;BME280;9539;59.332;18.034;2022-11-14T10:49:18;102167.38;;;9.39;100.00
18821;BME280;9539;59.332;18.034;2022-11-14T10:51:49;102170.22;;;9.33;100.00
18821;BME280;9539;59.332;18.034;2022-11-14T10:54:21;102167.69;;;9.55;100.00
18821;BME280;9539;59.332;18.034;2022-11-14T10:56:50;102166.88;;;9.53;100.00
18821;BME280;9539;59.332;18.034;2022-11-14T10:59:18;102161.22;;;9.63;100.00
18821;BME280;9539;59.332;18.034;2022-11-14T11:01:52;102157.00;;;9.58;100.00
18821;BME280;9539;59.332;18.034;2022-11-14T11:04:25;102153.56;;;9.54;100.00
18821;BME280;9539;59.332;18.034;2022-11-14T11:06:53;102151.69;;;9.58;100.00
18821;BME280;9539;59.332;18.034;2022-11-14T11:09:22;102152.81;;;9.51;100.00
18821;BME280;9539;59.332;18.034;2022-11-14T11:12:08;102145.09;;;9.45;100.00
18821;BME280;9539;59.332;18.034;2022-11-14T11:14:35;102133.78;;;9.40;100.00
18821;BME280;9539;59.332;18.034;2022-11-14T11:17:23;102139.34;;;9.32;100.00
18821;BME280;9539;59.332;18.034;2022-11-14T11:19:51;102135.50;;;9.41;100.00
18821;BME280;9539;59.332;18.034;2022-11-14T11:22:29;102132.34;;;9.30;100.00
18821;BME280;9539;59.332;18.034;2022-11-14T11:24:56;102125.88;;;9.38;100.00
18821;BME280;9539;59.332;18.034;2022-11-14T11:27:24;102123.22;;;9.38;100.00
18821;BME280;9539;59.332;18.034;2022-11-14T11:30:04;102125.56;;;9.47;100.00
18821;BME280;9539;59.332;18.034;2022-11-14T11:32:33;102119.16;;;9.53;100.00
18821;BME280;9539;59.332;18.034;2022-11-14T11:35:03;102122.75;;;9.52;100.00
18821;BME280;9539;59.332;18.034;2022-11-14T11:37:39;102119.09;;;9.56;100.00
18821;BME280;9539;59.332;18.034;2022-11-14T11:40:14;102104.44;;;9.71;100.00
18821;BME280;9539;59.332;18.034;2022-11-14T11:42:46;102116.69;;;9.73;100.00
18821;BME280;9539;59.332;18.034;2022-11-14T11:45:15;102108.69;;;9.75;100.00
18821;BME280;9539;59.332;18.034;2022-11-14T11:47:47;102109.88;;;9.41;100.00
18821;BME280;9539;59.332;18.034;2022-11-14T11:50:19;102100.53;;;9.56;100.00
18821;BME280;9539;59.332;18.034;2022-11-14T11:52:50;102098.78;;;9.55;100.00
18821;BME280;9539;59.332;18.034;2022-11-14T11:55:24;102091.84;;;9.52;100.00
18821;BME280;9539;59.332;18.034;2022-11-14T11:58:00;102097.59;;;9.39;100.00
18821;BME280;9539;59.332;18.034;2022-11-14T12:00:28;102089.44;;;9.70;100.00
18821;BME280;9539;59.332;18.034;2022-11-14T12:02:55;102078.72;;;9.48;100.00
18821;BME280;9539;59.332;18.034;2022-11-14T12:05:30;102093.88;;;9.44;100.00
18821;BME280;9539;59.332;18.034;2022-11-14T12:08:00;102080.25;;;9.55;100.00
18821;BME280;9539;59.332;18.034;2022-11-14T12:10:32;102066.81;;;9.59;100.00
18821;BME280;9539;59.332;18.034;2022-11-14T12:16:29;102076.59;;;9.59;100.00
18821;BME280;9539;59.332;18.034;2022-11-14T12:22:26;102075.50;;;9.65;100.00
18821;BME280;9539;59.332;18.034;2022-11-14T12:25:07;102067.69;;;9.60;100.00
18821;BME280;9539;59.332;18.034;2022-11-14T12:27:59;102063.22;;;9.62;100.00
18821;BME280;9539;59.332;18.034;2022-11-14T12:30:30;102073.28;;;9.52;100.00
18821;BME280;9539;59.332;18.034;2022-11-14T12:33:02;102065.59;;;9.70;100.00
18821;BME280;9539;59.332;18.034;2022-11-14T12:35:32;102063.13;;;9.65;100.00
18821;BME280;9539;59.332;18.034;2022-11-14T12:38:02;102066.31;;;9.50;100.00
18821;BME280;9539;59.332;18.034;2022-11-14T12:40:32;102065.75;;;9.65;100.00
18821;BME280;9539;59.332;18.034;2022-11-14T12:43:01;102065.47;;;9.73;100.00
18821;BME280;9539;59.332;18.034;2022-11-14T12:45:57;102066.00;;;9.59;100.00
18821;BME280;9539;59.332;18.034;2022-11-14T12:48:32;102052.50;;;9.65;100.00
18821;BME280;9539;59.332;18.034;2022-11-14T12:51:01;102056.22;;;9.59;100.00
18821;BME280;9539;59.332;18.034;2022-11-14T12:53:43;102045.31;;;9.69;100.00
18821;BME280;9539;59.332;18.034;2022-11-14T12:59:44;102036.72;;;9.62;100.00
18821;BME280;9539;59.332;18.034;2022-11-14T13:02:27;102039.63;;;9.54;100.00
18821;BME280;9539;59.332;18.034;2022-11-14T13:05:18;102040.19;;;9.39;100.00
18821;BME280;9539;59.332;18.034;2022-11-14T13:07:58;102045.75;;;9.56;100.00
18821;BME280;9539;59.332;18.034;2022-11-14T13:10:36;102035.25;;;9.53;100.00